KLND

Details ICAO KLND
Name HUNT FLD
Region United States
Timezone America/Denver (UTC-6.0)
Plans Departing 6
Arriving 4
Stats Elevation 5,586 ft / 1,703 m (AMSL)
Location 42.815569° -108.728265°
Runways 1
Magnetic Variation 10.345° E
Sunrise 2018-05-23 11:46:18 UTC / 2018-05-23 05:46:18 Local
Sunset 2018-05-24 02:39:56 UTC / 2018-05-23 20:39:56 Local
Advertisement - Login to hide

Runways

ID Width Length Bearing (true) Bearing (mag) Surface Threshold Offset Overrun Length
03 98 ft / 30 m 5,004 ft / 1,525 m 50.30° 39.95° Asphalt 0 ft / 0 m 98 ft / 30 m
21 98 ft / 30 m 5,004 ft / 1,525 m 230.30° 219.95° Asphalt 0 ft / 0 m 0 ft / 0 m

Map

Weather


0- 5 10 15 20 25 30 35+ Temperature / ° C

Clouds and Precipitation
Forecast for 2018-05-23 18:00 UTC. Updated 18 minutes ago

Ground ~20,000 ft ~40,000 ft Winds

METAR

KLND 231653Z AUTO 03006KT 10SM CLR 17/11 A2994 RMK AO2 SLP095 T01670111

TAF

KLND 231131Z 2312/2412 26006KT P6SM VCFG SCT002 BKN020 TEMPO 2312/2314 1/2SM FG FM231700 22010KT P6SM SCT035 FM232100 22014G23KT P6SM VCSH BKN070 FM240400 23008KT P6SM VCSH BKN080

Frequencies

Recorded 118.15 MHz ASOS
Unicom 122.80 MHz CTAF/UNICOM
Warning: Do not use this data for real-world aviation or navigation. No guarantee of current accuracy is given.